Shelton, Washington
Current Conditions -  °F | °C
As of 12:53 PM on Thursday 23 Oct 2014 (Local Time) from KSHN Reporting Station
Broken Clouds Broken Clouds  
Wind Chill: 57°   Ceiling: 3300
Heat Index: 57°   Visibility: 10mi
Dew Point: 49°   Wind: 13mph
Humidity: 74%   Direction: 210°SSW
Pressure: 29.79"   Gusts: 22mph
Location:  47.21°N, 123.1°W
Report Text: KSHN 231953Z AUTO 21011G19KT 10SM SCT024 BKN033 BKN075 14/09 A2979 RMK AO2 SLP088 T01390094 TSNO
Loading
Personal Weather Stations






























Interactive Weather Map
Tropical Storm Tracking
New forecast layout! Learn more

10-Day Weather Forecast

Advertisements
Track Severe Weather on mobile